sensor_id;sensor_type;location;lat;lon;timestamp;temperature;humidity
29551;DHT22;16488;52.396;10.696;2023-06-22T00:00:59;17.50;99.90
29551;DHT22;16488;52.396;10.696;2023-06-22T00:03:25;17.40;99.90
29551;DHT22;16488;52.396;10.696;2023-06-22T00:05:51;17.30;99.90
29551;DHT22;16488;52.396;10.696;2023-06-22T00:08:18;17.30;99.90
29551;DHT22;16488;52.396;10.696;2023-06-22T00:10:44;17.40;99.90
29551;DHT22;16488;52.396;10.696;2023-06-22T00:13:10;17.70;99.90
29551;DHT22;16488;52.396;10.696;2023-06-22T00:15:37;17.60;99.90
29551;DHT22;16488;52.396;10.696;2023-06-22T00:18:04;17.70;99.90
29551;DHT22;16488;52.396;10.696;2023-06-22T00:20:30;17.80;99.90
29551;DHT22;16488;52.396;10.696;2023-06-22T00:22:57;17.90;99.90
29551;DHT22;16488;52.396;10.696;2023-06-22T00:25:23;17.90;99.90
29551;DHT22;16488;52.396;10.696;2023-06-22T00:27:49;18.10;99.90
29551;DHT22;16488;52.396;10.696;2023-06-22T00:30:18;18.10;99.90
29551;DHT22;16488;52.396;10.696;2023-06-22T00:32:45;18.00;99.90
29551;DHT22;16488;52.396;10.696;2023-06-22T00:35:11;17.90;99.90
29551;DHT22;16488;52.396;10.696;2023-06-22T00:37:37;17.80;99.90
29551;DHT22;16488;52.396;10.696;2023-06-22T00:40:06;17.70;99.90
29551;DHT22;16488;52.396;10.696;2023-06-22T00:42:33;17.40;99.90
29551;DHT22;16488;52.396;10.696;2023-06-22T00:44:58;17.20;99.90
29551;DHT22;16488;52.396;10.696;2023-06-22T00:47:24;17.00;99.90
29551;DHT22;16488;52.396;10.696;2023-06-22T00:49:50;16.90;99.90
29551;DHT22;16488;52.396;10.696;2023-06-22T00:52:22;16.90;99.90
29551;DHT22;16488;52.396;10.696;2023-06-22T00:54:52;16.80;99.90
29551;DHT22;16488;52.396;10.696;2023-06-22T00:57:19;16.80;99.90
29551;DHT22;16488;52.396;10.696;2023-06-22T00:59:45;16.70;99.90
29551;DHT22;16488;52.396;10.696;2023-06-22T01:02:13;16.60;99.90
29551;DHT22;16488;52.396;10.696;2023-06-22T01:04:39;16.60;99.90
29551;DHT22;16488;52.396;10.696;2023-06-22T01:10:21;16.40;99.90
29551;DHT22;16488;52.396;10.696;2023-06-22T01:12:52;16.30;99.90
29551;DHT22;16488;52.396;10.696;2023-06-22T01:15:37;16.40;99.90
29551;DHT22;16488;52.396;10.696;2023-06-22T01:18:06;16.60;99.90
29551;DHT22;16488;52.396;10.696;2023-06-22T01:20:34;16.80;99.90
29551;DHT22;16488;52.396;10.696;2023-06-22T01:25:57;17.00;99.90
29551;DHT22;16488;52.396;10.696;2023-06-22T01:31:12;16.90;99.90
29551;DHT22;16488;52.396;10.696;2023-06-22T01:33:41;16.90;99.90
29551;DHT22;16488;52.396;10.696;2023-06-22T01:36:08;17.00;99.90
29551;DHT22;16488;52.396;10.696;2023-06-22T01:38:34;17.10;99.90
29551;DHT22;16488;52.396;10.696;2023-06-22T01:41:02;17.10;99.90
29551;DHT22;16488;52.396;10.696;2023-06-22T01:43:29;17.00;99.90
29551;DHT22;16488;52.396;10.696;2023-06-22T01:45:56;16.90;99.90
29551;DHT22;16488;52.396;10.696;2023-06-22T01:48:22;16.80;99.90
29551;DHT22;16488;52.396;10.696;2023-06-22T01:50:49;16.60;99.90
29551;DHT22;16488;52.396;10.696;2023-06-22T01:53:14;16.50;99.90
29551;DHT22;16488;52.396;10.696;2023-06-22T01:55:40;16.40;99.90
29551;DHT22;16488;52.396;10.696;2023-06-22T01:58:05;16.20;99.90
29551;DHT22;16488;52.396;10.696;2023-06-22T02:00:37;16.20;99.90
29551;DHT22;16488;52.396;10.696;2023-06-22T02:03:22;16.20;99.90
29551;DHT22;16488;52.396;10.696;2023-06-22T02:05:54;16.10;99.90
29551;DHT22;16488;52.396;10.696;2023-06-22T02:08:28;16.10;99.90
29551;DHT22;16488;52.396;10.696;2023-06-22T02:10:55;16.10;99.90
29551;DHT22;16488;52.396;10.696;2023-06-22T02:13:24;16.00;99.90
29551;DHT22;16488;52.396;10.696;2023-06-22T02:15:50;16.00;99.90
29551;DHT22;16488;52.396;10.696;2023-06-22T02:18:16;16.00;99.90
29551;DHT22;16488;52.396;10.696;2023-06-22T02:20:42;16.00;99.90
29551;DHT22;16488;52.396;10.696;2023-06-22T02:23:08;16.10;99.90
29551;DHT22;16488;52.396;10.696;2023-06-22T02:25:34;16.20;99.90
29551;DHT22;16488;52.396;10.696;2023-06-22T02:27:59;16.40;99.90
29551;DHT22;16488;52.396;10.696;2023-06-22T02:30:25;16.50;99.90
29551;DHT22;16488;52.396;10.696;2023-06-22T02:32:51;16.50;99.90
29551;DHT22;16488;52.396;10.696;2023-06-22T02:35:32;16.50;99.90
29551;DHT22;16488;52.396;10.696;2023-06-22T02:38:01;16.60;99.90
29551;DHT22;16488;52.396;10.696;2023-06-22T02:40:28;16.60;99.90
29551;DHT22;16488;52.396;10.696;2023-06-22T02:42:55;16.70;99.90
29551;DHT22;16488;52.396;10.696;2023-06-22T02:45:20;16.80;99.90
29551;DHT22;16488;52.396;10.696;2023-06-22T02:47:46;16.80;99.90
29551;DHT22;16488;52.396;10.696;2023-06-22T02:50:13;16.80;99.90
29551;DHT22;16488;52.396;10.696;2023-06-22T02:52:39;16.80;99.90
29551;DHT22;16488;52.396;10.696;2023-06-22T02:55:05;16.90;99.90
29551;DHT22;16488;52.396;10.696;2023-06-22T02:57:32;16.90;99.90
29551;DHT22;16488;52.396;10.696;2023-06-22T02:59:59;16.90;99.90
29551;DHT22;16488;52.396;10.696;2023-06-22T03:02:24;16.90;99.90
29551;DHT22;16488;52.396;10.696;2023-06-22T03:04:52;16.50;99.90
29551;DHT22;16488;52.396;10.696;2023-06-22T03:07:19;16.20;99.90
29551;DHT22;16488;52.396;10.696;2023-06-22T03:09:45;15.90;99.90
29551;DHT22;16488;52.396;10.696;2023-06-22T03:12:10;15.80;99.90
29551;DHT22;16488;52.396;10.696;2023-06-22T03:14:36;15.70;99.90
29551;DHT22;16488;52.396;10.696;2023-06-22T03:17:02;15.80;99.90
29551;DHT22;16488;52.396;10.696;2023-06-22T03:19:29;16.00;99.90
29551;DHT22;16488;52.396;10.696;2023-06-22T03:21:57;16.10;99.90
29551;DHT22;16488;52.396;10.696;2023-06-22T03:24:22;16.20;99.90
29551;DHT22;16488;52.396;10.696;2023-06-22T03:26:48;16.30;99.90
29551;DHT22;16488;52.396;10.696;2023-06-22T03:29:13;16.30;99.90
29551;DHT22;16488;52.396;10.696;2023-06-22T03:31:39;16.30;99.90
29551;DHT22;16488;52.396;10.696;2023-06-22T03:34:05;16.30;99.90
29551;DHT22;16488;52.396;10.696;2023-06-22T03:36:30;16.00;99.90
29551;DHT22;16488;52.396;10.696;2023-06-22T03:38:56;15.90;99.90
29551;DHT22;16488;52.396;10.696;2023-06-22T03:41:21;15.80;99.90
29551;DHT22;16488;52.396;10.696;2023-06-22T03:43:47;15.80;99.90
29551;DHT22;16488;52.396;10.696;2023-06-22T03:46:13;15.70;99.90
29551;DHT22;16488;52.396;10.696;2023-06-22T03:48:38;15.70;99.90
29551;DHT22;16488;52.396;10.696;2023-06-22T03:51:04;15.60;99.90
29551;DHT22;16488;52.396;10.696;2023-06-22T03:53:30;15.70;99.90
29551;DHT22;16488;52.396;10.696;2023-06-22T03:55:55;15.70;99.90
29551;DHT22;16488;52.396;10.696;2023-06-22T03:58:21;15.80;99.90
29551;DHT22;16488;52.396;10.696;2023-06-22T04:00:49;15.90;99.90
29551;DHT22;16488;52.396;10.696;2023-06-22T04:03:15;16.10;99.90
29551;DHT22;16488;52.396;10.696;2023-06-22T04:05:41;16.30;99.90
29551;DHT22;16488;52.396;10.696;2023-06-22T04:08:07;16.50;99.90
29551;DHT22;16488;52.396;10.696;2023-06-22T04:10:33;16.60;99.90
29551;DHT22;16488;52.396;10.696;2023-06-22T04:12:59;16.70;99.90
29551;DHT22;16488;52.396;10.696;2023-06-22T04:15:25;16.80;99.90
29551;DHT22;16488;52.396;10.696;2023-06-22T04:17:50;16.80;99.90
29551;DHT22;16488;52.396;10.696;2023-06-22T04:20:16;16.80;99.90
29551;DHT22;16488;52.396;10.696;2023-06-22T04:22:42;16.90;99.90
29551;DHT22;16488;52.396;10.696;2023-06-22T04:25:07;16.90;99.90
29551;DHT22;16488;52.396;10.696;2023-06-22T04:27:34;16.90;99.90
29551;DHT22;16488;52.396;10.696;2023-06-22T04:30:06;16.90;99.90
29551;DHT22;16488;52.396;10.696;2023-06-22T04:32:33;17.10;99.90
29551;DHT22;16488;52.396;10.696;2023-06-22T04:34:59;17.20;99.90
29551;DHT22;16488;52.396;10.696;2023-06-22T04:37:30;17.30;99.90
29551;DHT22;16488;52.396;10.696;2023-06-22T04:39:56;17.40;99.90
29551;DHT22;16488;52.396;10.696;2023-06-22T04:42:22;17.70;99.90
29551;DHT22;16488;52.396;10.696;2023-06-22T04:44:47;17.80;99.90
29551;DHT22;16488;52.396;10.696;2023-06-22T04:47:13;18.00;99.90
29551;DHT22;16488;52.396;10.696;2023-06-22T04:49:39;18.30;99.90
29551;DHT22;16488;52.396;10.696;2023-06-22T04:52:07;18.50;99.90
29551;DHT22;16488;52.396;10.696;2023-06-22T04:54:34;18.70;99.90
29551;DHT22;16488;52.396;10.696;2023-06-22T04:57:01;18.90;99.90
29551;DHT22;16488;52.396;10.696;2023-06-22T04:59:28;19.00;99.90
29551;DHT22;16488;52.396;10.696;2023-06-22T05:01:59;19.20;99.90
29551;DHT22;16488;52.396;10.696;2023-06-22T05:04:26;19.30;99.90
29551;DHT22;16488;52.396;10.696;2023-06-22T05:06:54;19.50;99.90
29551;DHT22;16488;52.396;10.696;2023-06-22T05:09:20;19.60;99.90
29551;DHT22;16488;52.396;10.696;2023-06-22T05:11:46;19.60;99.90
29551;DHT22;16488;52.396;10.696;2023-06-22T05:14:12;19.70;99.90
29551;DHT22;16488;52.396;10.696;2023-06-22T05:16:38;19.70;99.90
29551;DHT22;16488;52.396;10.696;2023-06-22T05:19:04;19.80;99.90
29551;DHT22;16488;52.396;10.696;2023-06-22T05:21:30;19.80;99.90
29551;DHT22;16488;52.396;10.696;2023-06-22T05:23:56;19.80;99.90
29551;DHT22;16488;52.396;10.696;2023-06-22T05:26:31;19.90;99.90
29551;DHT22;16488;52.396;10.696;2023-06-22T05:28:59;19.90;99.90
29551;DHT22;16488;52.396;10.696;2023-06-22T05:31:24;20.00;99.90
29551;DHT22;16488;52.396;10.696;2023-06-22T05:33:52;20.00;99.90
29551;DHT22;16488;52.396;10.696;2023-06-22T05:36:18;20.10;99.90
29551;DHT22;16488;52.396;10.696;2023-06-22T05:38:50;20.10;99.90
29551;DHT22;16488;52.396;10.696;2023-06-22T05:41:16;20.20;99.90
29551;DHT22;16488;52.396;10.696;2023-06-22T05:43:41;20.20;99.90
29551;DHT22;16488;52.396;10.696;2023-06-22T05:46:07;20.20;99.90
29551;DHT22;16488;52.396;10.696;2023-06-22T05:48:33;20.30;99.90
29551;DHT22;16488;52.396;10.696;2023-06-22T05:50:59;20.30;99.90
29551;DHT22;16488;52.396;10.696;2023-06-22T05:53:24;20.40;99.90
29551;DHT22;16488;52.396;10.696;2023-06-22T05:55:50;20.40;99.90
29551;DHT22;16488;52.396;10.696;2023-06-22T05:58:16;20.50;99.90
29551;DHT22;16488;52.396;10.696;2023-06-22T06:00:42;20.60;99.90
29551;DHT22;16488;52.396;10.696;2023-06-22T06:03:09;20.60;99.90
29551;DHT22;16488;52.396;10.696;2023-06-22T06:05:35;20.70;99.90
29551;DHT22;16488;52.396;10.696;2023-06-22T06:08:03;20.70;99.90
29551;DHT22;16488;52.396;10.696;2023-06-22T06:10:30;20.80;99.90
29551;DHT22;16488;52.396;10.696;2023-06-22T06:12:56;20.80;99.90
29551;DHT22;16488;52.396;10.696;2023-06-22T06:15:22;20.90;99.90
29551;DHT22;16488;52.396;10.696;2023-06-22T06:17:52;21.00;99.90
29551;DHT22;16488;52.396;10.696;2023-06-22T06:20:19;21.00;99.90
29551;DHT22;16488;52.396;10.696;2023-06-22T06:22:45;21.00;99.90
29551;DHT22;16488;52.396;10.696;2023-06-22T06:25:10;21.10;99.90
29551;DHT22;16488;52.396;10.696;2023-06-22T06:27:44;21.10;99.90
29551;DHT22;16488;52.396;10.696;2023-06-22T06:30:11;21.20;99.90
29551;DHT22;16488;52.396;10.696;2023-06-22T06:32:37;21.20;99.90
29551;DHT22;16488;52.396;10.696;2023-06-22T06:35:05;21.20;99.90
29551;DHT22;16488;52.396;10.696;2023-06-22T06:37:31;21.30;99.90
29551;DHT22;16488;52.396;10.696;2023-06-22T06:39:57;21.30;99.90
29551;DHT22;16488;52.396;10.696;2023-06-22T06:42:23;21.20;99.90
29551;DHT22;16488;52.396;10.696;2023-06-22T06:44:49;21.30;99.90
29551;DHT22;16488;52.396;10.696;2023-06-22T06:47:15;21.20;99.90
29551;DHT22;16488;52.396;10.696;2023-06-22T06:49:42;21.30;99.90
29551;DHT22;16488;52.396;10.696;2023-06-22T06:52:08;21.40;99.90
29551;DHT22;16488;52.396;10.696;2023-06-22T06:54:34;21.40;99.90
29551;DHT22;16488;52.396;10.696;2023-06-22T06:56:59;21.50;99.90
29551;DHT22;16488;52.396;10.696;2023-06-22T06:59:25;21.60;99.90
29551;DHT22;16488;52.396;10.696;2023-06-22T07:01:51;21.70;99.90
29551;DHT22;16488;52.396;10.696;2023-06-22T07:04:16;21.70;99.90
29551;DHT22;16488;52.396;10.696;2023-06-22T07:06:42;21.80;99.90
29551;DHT22;16488;52.396;10.696;2023-06-22T07:09:08;21.90;99.90
29551;DHT22;16488;52.396;10.696;2023-06-22T07:11:33;21.90;99.90
29551;DHT22;16488;52.396;10.696;2023-06-22T07:14:00;22.10;99.90
29551;DHT22;16488;52.396;10.696;2023-06-22T07:16:26;22.20;99.90
29551;DHT22;16488;52.396;10.696;2023-06-22T07:18:53;22.30;99.90
29551;DHT22;16488;52.396;10.696;2023-06-22T07:21:18;22.50;99.90
29551;DHT22;16488;52.396;10.696;2023-06-22T07:23:44;22.70;99.90
29551;DHT22;16488;52.396;10.696;2023-06-22T07:26:09;22.70;99.90
29551;DHT22;16488;52.396;10.696;2023-06-22T07:28:38;22.80;99.90
29551;DHT22;16488;52.396;10.696;2023-06-22T07:31:05;22.80;99.90
29551;DHT22;16488;52.396;10.696;2023-06-22T07:33:31;22.90;99.90
29551;DHT22;16488;52.396;10.696;2023-06-22T07:35:57;22.90;99.90
29551;DHT22;16488;52.396;10.696;2023-06-22T07:38:22;22.90;99.90
29551;DHT22;16488;52.396;10.696;2023-06-22T07:40:48;23.00;99.90
29551;DHT22;16488;52.396;10.696;2023-06-22T07:43:13;23.00;99.90
29551;DHT22;16488;52.396;10.696;2023-06-22T07:45:39;23.20;99.90
29551;DHT22;16488;52.396;10.696;2023-06-22T07:48:06;23.30;99.90
29551;DHT22;16488;52.396;10.696;2023-06-22T07:50:32;23.40;99.90
29551;DHT22;16488;52.396;10.696;2023-06-22T07:52:58;23.50;99.90
29551;DHT22;16488;52.396;10.696;2023-06-22T07:55:23;23.60;99.90
29551;DHT22;16488;52.396;10.696;2023-06-22T07:57:49;23.60;99.90
29551;DHT22;16488;52.396;10.696;2023-06-22T08:00:17;23.60;99.90
29551;DHT22;16488;52.396;10.696;2023-06-22T08:02:45;23.60;99.90
29551;DHT22;16488;52.396;10.696;2023-06-22T08:05:11;23.60;99.90
29551;DHT22;16488;52.396;10.696;2023-06-22T08:07:37;23.60;99.90
29551;DHT22;16488;52.396;10.696;2023-06-22T08:10:03;23.60;99.90
29551;DHT22;16488;52.396;10.696;2023-06-22T08:12:29;23.70;99.90
29551;DHT22;16488;52.396;10.696;2023-06-22T08:14:55;23.70;99.90
29551;DHT22;16488;52.396;10.696;2023-06-22T08:17:22;23.70;99.90
29551;DHT22;16488;52.396;10.696;2023-06-22T08:19:48;23.60;99.90
29551;DHT22;16488;52.396;10.696;2023-06-22T08:22:13;23.60;99.90
29551;DHT22;16488;52.396;10.696;2023-06-22T08:24:39;23.70;99.90
29551;DHT22;16488;52.396;10.696;2023-06-22T08:27:07;23.80;99.90
29551;DHT22;16488;52.396;10.696;2023-06-22T08:29:35;23.90;99.90
29551;DHT22;16488;52.396;10.696;2023-06-22T08:32:01;23.90;99.90
29551;DHT22;16488;52.396;10.696;2023-06-22T08:34:26;24.00;99.90
29551;DHT22;16488;52.396;10.696;2023-06-22T08:36:53;24.10;99.90
29551;DHT22;16488;52.396;10.696;2023-06-22T08:39:21;24.10;99.90
29551;DHT22;16488;52.396;10.696;2023-06-22T08:41:47;24.10;99.90
29551;DHT22;16488;52.396;10.696;2023-06-22T08:44:13;24.10;99.90
29551;DHT22;16488;52.396;10.696;2023-06-22T08:46:39;24.00;99.90
29551;DHT22;16488;52.396;10.696;2023-06-22T08:49:06;23.90;99.90
29551;DHT22;16488;52.396;10.696;2023-06-22T08:51:32;23.90;99.90
29551;DHT22;16488;52.396;10.696;2023-06-22T08:53:58;24.00;99.90
29551;DHT22;16488;52.396;10.696;2023-06-22T08:56:23;23.90;99.90
29551;DHT22;16488;52.396;10.696;2023-06-22T08:58:49;24.00;99.90
29551;DHT22;16488;52.396;10.696;2023-06-22T09:01:14;24.00;99.90
29551;DHT22;16488;52.396;10.696;2023-06-22T09:03:41;24.00;99.90
29551;DHT22;16488;52.396;10.696;2023-06-22T09:06:07;24.10;99.90
29551;DHT22;16488;52.396;10.696;2023-06-22T09:08:35;24.10;99.90
29551;DHT22;16488;52.396;10.696;2023-06-22T09:11:00;24.10;99.90
29551;DHT22;16488;52.396;10.696;2023-06-22T09:13:26;24.20;99.90
29551;DHT22;16488;52.396;10.696;2023-06-22T09:15:51;24.20;99.90
29551;DHT22;16488;52.396;10.696;2023-06-22T09:18:17;24.30;99.90
29551;DHT22;16488;52.396;10.696;2023-06-22T09:20:43;24.40;99.90
29551;DHT22;16488;52.396;10.696;2023-06-22T09:23:10;24.40;99.90
29551;DHT22;16488;52.396;10.696;2023-06-22T09:25:35;24.50;99.90
29551;DHT22;16488;52.396;10.696;2023-06-22T09:28:01;24.60;99.90
29551;DHT22;16488;52.396;10.696;2023-06-22T09:30:26;24.60;99.90
29551;DHT22;16488;52.396;10.696;2023-06-22T09:32:52;24.70;99.90
29551;DHT22;16488;52.396;10.696;2023-06-22T09:35:18;24.60;99.90
29551;DHT22;16488;52.396;10.696;2023-06-22T09:37:43;24.70;99.90
29551;DHT22;16488;52.396;10.696;2023-06-22T09:40:09;24.70;99.90
29551;DHT22;16488;52.396;10.696;2023-06-22T09:42:36;24.80;99.90
29551;DHT22;16488;52.396;10.696;2023-06-22T09:45:02;24.80;99.90
29551;DHT22;16488;52.396;10.696;2023-06-22T09:47:28;24.90;99.90
29551;DHT22;16488;52.396;10.696;2023-06-22T09:49:54;25.10;99.90
29551;DHT22;16488;52.396;10.696;2023-06-22T09:52:21;25.30;99.90
29551;DHT22;16488;52.396;10.696;2023-06-22T09:54:47;25.40;99.90
29551;DHT22;16488;52.396;10.696;2023-06-22T09:57:13;25.60;99.90
29551;DHT22;16488;52.396;10.696;2023-06-22T09:59:38;25.60;99.90
29551;DHT22;16488;52.396;10.696;2023-06-22T10:02:07;25.70;99.90
29551;DHT22;16488;52.396;10.696;2023-06-22T10:04:34;25.80;99.90
29551;DHT22;16488;52.396;10.696;2023-06-22T10:07:00;25.80;99.90
29551;DHT22;16488;52.396;10.696;2023-06-22T10:09:26;25.80;99.90
29551;DHT22;16488;52.396;10.696;2023-06-22T10:11:52;25.80;99.90
29551;DHT22;16488;52.396;10.696;2023-06-22T10:14:17;25.90;99.90
29551;DHT22;16488;52.396;10.696;2023-06-22T10:16:43;25.90;99.90
29551;DHT22;16488;52.396;10.696;2023-06-22T10:19:09;26.00;99.90
29551;DHT22;16488;52.396;10.696;2023-06-22T10:21:35;26.10;99.90
29551;DHT22;16488;52.396;10.696;2023-06-22T10:24:01;26.10;99.90
29551;DHT22;16488;52.396;10.696;2023-06-22T10:26:32;26.20;99.90
29551;DHT22;16488;52.396;10.696;2023-06-22T10:28:58;26.30;99.90
29551;DHT22;16488;52.396;10.696;2023-06-22T10:31:23;26.40;99.90
29551;DHT22;16488;52.396;10.696;2023-06-22T10:33:49;26.50;99.90
29551;DHT22;16488;52.396;10.696;2023-06-22T10:36:15;26.50;99.90
29551;DHT22;16488;52.396;10.696;2023-06-22T10:38:40;26.50;99.90
29551;DHT22;16488;52.396;10.696;2023-06-22T10:41:06;26.50;99.90
29551;DHT22;16488;52.396;10.696;2023-06-22T10:43:32;26.50;99.90
29551;DHT22;16488;52.396;10.696;2023-06-22T10:45:58;26.70;99.90
29551;DHT22;16488;52.396;10.696;2023-06-22T10:48:23;26.80;99.90
29551;DHT22;16488;52.396;10.696;2023-06-22T10:50:49;26.70;99.90
29551;DHT22;16488;52.396;10.696;2023-06-22T10:53:14;26.70;99.90
29551;DHT22;16488;52.396;10.696;2023-06-22T10:55:40;26.70;99.90
29551;DHT22;16488;52.396;10.696;2023-06-22T10:58:06;26.70;99.90
29551;DHT22;16488;52.396;10.696;2023-06-22T11:00:31;26.50;99.90
29551;DHT22;16488;52.396;10.696;2023-06-22T11:02:57;26.40;99.90
29551;DHT22;16488;52.396;10.696;2023-06-22T11:05:23;26.30;99.90
29551;DHT22;16488;52.396;10.696;2023-06-22T11:07:49;26.20;99.90
29551;DHT22;16488;52.396;10.696;2023-06-22T11:10:16;26.10;99.90
29551;DHT22;16488;52.396;10.696;2023-06-22T11:12:41;26.00;99.90
29551;DHT22;16488;52.396;10.696;2023-06-22T11:15:08;26.00;99.90
29551;DHT22;16488;52.396;10.696;2023-06-22T11:17:34;25.90;99.90
29551;DHT22;16488;52.396;10.696;2023-06-22T11:19:59;25.90;99.90
29551;DHT22;16488;52.396;10.696;2023-06-22T11:22:25;25.70;99.90
29551;DHT22;16488;52.396;10.696;2023-06-22T11:24:51;25.80;99.90
29551;DHT22;16488;52.396;10.696;2023-06-22T11:27:17;25.70;99.90
29551;DHT22;16488;52.396;10.696;2023-06-22T11:29:42;25.70;99.90
29551;DHT22;16488;52.396;10.696;2023-06-22T11:32:08;25.70;99.90
29551;DHT22;16488;52.396;10.696;2023-06-22T11:34:34;25.80;99.90
29551;DHT22;16488;52.396;10.696;2023-06-22T11:37:00;25.80;99.90
29551;DHT22;16488;52.396;10.696;2023-06-22T11:39:25;26.00;99.90
29551;DHT22;16488;52.396;10.696;2023-06-22T11:41:51;26.10;99.90
29551;DHT22;16488;52.396;10.696;2023-06-22T11:44:17;26.20;99.90
29551;DHT22;16488;52.396;10.696;2023-06-22T11:46:42;26.40;99.90
29551;DHT22;16488;52.396;10.696;2023-06-22T11:49:08;26.50;99.90
29551;DHT22;16488;52.396;10.696;2023-06-22T11:51:34;26.50;99.90
29551;DHT22;16488;52.396;10.696;2023-06-22T11:53:59;26.60;99.90
29551;DHT22;16488;52.396;10.696;2023-06-22T11:56:25;26.60;99.90
29551;DHT22;16488;52.396;10.696;2023-06-22T11:58:50;26.70;99.90
29551;DHT22;16488;52.396;10.696;2023-06-22T12:01:16;26.80;99.90
29551;DHT22;16488;52.396;10.696;2023-06-22T12:03:42;26.80;99.90
29551;DHT22;16488;52.396;10.696;2023-06-22T12:06:09;26.70;99.90
29551;DHT22;16488;52.396;10.696;2023-06-22T12:08:35;26.70;99.90
29551;DHT22;16488;52.396;10.696;2023-06-22T12:11:00;26.80;99.90
29551;DHT22;16488;52.396;10.696;2023-06-22T12:13:26;26.90;99.90
29551;DHT22;16488;52.396;10.696;2023-06-22T12:15:52;27.00;99.90
29551;DHT22;16488;52.396;10.696;2023-06-22T12:18:20;27.10;99.90
29551;DHT22;16488;52.396;10.696;2023-06-22T12:20:48;27.30;99.90
29551;DHT22;16488;52.396;10.696;2023-06-22T12:23:14;27.30;99.90
29551;DHT22;16488;52.396;10.696;2023-06-22T12:25:40;27.40;99.90
29551;DHT22;16488;52.396;10.696;2023-06-22T12:28:06;27.50;99.90
29551;DHT22;16488;52.396;10.696;2023-06-22T12:30:34;27.60;99.90
29551;DHT22;16488;52.396;10.696;2023-06-22T12:33:00;27.60;99.90
29551;DHT22;16488;52.396;10.696;2023-06-22T12:35:25;27.70;99.90
29551;DHT22;16488;52.396;10.696;2023-06-22T12:37:51;27.80;99.90
29551;DHT22;16488;52.396;10.696;2023-06-22T12:40:17;27.90;99.90
29551;DHT22;16488;52.396;10.696;2023-06-22T12:42:42;28.00;99.90
29551;DHT22;16488;52.396;10.696;2023-06-22T12:45:08;28.30;99.90
29551;DHT22;16488;52.396;10.696;2023-06-22T12:47:34;28.30;99.90
29551;DHT22;16488;52.396;10.696;2023-06-22T12:50:00;28.40;99.90
29551;DHT22;16488;52.396;10.696;2023-06-22T12:52:26;28.60;99.90
29551;DHT22;16488;52.396;10.696;2023-06-22T12:54:51;28.60;99.90
29551;DHT22;16488;52.396;10.696;2023-06-22T12:57:18;28.60;99.90
29551;DHT22;16488;52.396;10.696;2023-06-22T12:59:45;28.70;99.90
29551;DHT22;16488;52.396;10.696;2023-06-22T13:02:10;28.80;99.50
29551;DHT22;16488;52.396;10.696;2023-06-22T13:04:36;28.80;99.60
29551;DHT22;16488;52.396;10.696;2023-06-22T13:07:02;28.90;99.90
29551;DHT22;16488;52.396;10.696;2023-06-22T13:09:27;29.10;99.30
29551;DHT22;16488;52.396;10.696;2023-06-22T13:11:53;29.00;98.10
29551;DHT22;16488;52.396;10.696;2023-06-22T13:14:18;28.70;98.40
29551;DHT22;16488;52.396;10.696;2023-06-22T13:16:44;28.50;97.30
29551;DHT22;16488;52.396;10.696;2023-06-22T13:19:10;28.40;98.60
29551;DHT22;16488;52.396;10.696;2023-06-22T13:21:35;28.30;98.80
29551;DHT22;16488;52.396;10.696;2023-06-22T13:24:01;28.30;98.80
29551;DHT22;16488;52.396;10.696;2023-06-22T13:26:27;28.30;99.20
29551;DHT22;16488;52.396;10.696;2023-06-22T13:28:54;28.30;98.90
29551;DHT22;16488;52.396;10.696;2023-06-22T13:31:20;28.30;99.60
29551;DHT22;16488;52.396;10.696;2023-06-22T13:33:45;28.10;99.90
29551;DHT22;16488;52.396;10.696;2023-06-22T13:36:13;28.10;99.90
29551;DHT22;16488;52.396;10.696;2023-06-22T13:38:39;27.90;99.90
29551;DHT22;16488;52.396;10.696;2023-06-22T13:41:07;27.80;99.90
29551;DHT22;16488;52.396;10.696;2023-06-22T13:43:33;27.60;99.90
29551;DHT22;16488;52.396;10.696;2023-06-22T13:45:58;27.40;99.90
29551;DHT22;16488;52.396;10.696;2023-06-22T13:48:24;27.30;99.90
29551;DHT22;16488;52.396;10.696;2023-06-22T13:50:51;27.20;99.90
29551;DHT22;16488;52.396;10.696;2023-06-22T13:53:17;27.20;99.90
29551;DHT22;16488;52.396;10.696;2023-06-22T13:55:42;27.10;99.90
29551;DHT22;16488;52.396;10.696;2023-06-22T13:58:08;27.20;99.90
29551;DHT22;16488;52.396;10.696;2023-06-22T14:00:34;27.20;99.90
29551;DHT22;16488;52.396;10.696;2023-06-22T14:02:59;27.10;99.90
29551;DHT22;16488;52.396;10.696;2023-06-22T14:05:25;27.10;99.90
29551;DHT22;16488;52.396;10.696;2023-06-22T14:07:51;27.10;99.90
29551;DHT22;16488;52.396;10.696;2023-06-22T14:10:17;27.00;99.90
29551;DHT22;16488;52.396;10.696;2023-06-22T14:12:43;26.90;99.90
29551;DHT22;16488;52.396;10.696;2023-06-22T14:15:08;26.80;99.90
29551;DHT22;16488;52.396;10.696;2023-06-22T14:17:34;26.70;99.90
29551;DHT22;16488;52.396;10.696;2023-06-22T14:20:00;26.70;99.90
29551;DHT22;16488;52.396;10.696;2023-06-22T14:22:28;26.70;99.90
29551;DHT22;16488;52.396;10.696;2023-06-22T14:24:55;26.60;99.90
29551;DHT22;16488;52.396;10.696;2023-06-22T14:27:23;26.60;99.90
29551;DHT22;16488;52.396;10.696;2023-06-22T14:29:48;26.50;99.90
29551;DHT22;16488;52.396;10.696;2023-06-22T14:32:14;26.50;99.90
29551;DHT22;16488;52.396;10.696;2023-06-22T14:34:39;26.50;99.90
29551;DHT22;16488;52.396;10.696;2023-06-22T14:37:07;26.50;99.90
29551;DHT22;16488;52.396;10.696;2023-06-22T14:39:35;26.60;99.90
29551;DHT22;16488;52.396;10.696;2023-06-22T14:42:01;26.60;99.90
29551;DHT22;16488;52.396;10.696;2023-06-22T14:44:27;26.70;99.90
29551;DHT22;16488;52.396;10.696;2023-06-22T14:46:54;26.70;99.90
29551;DHT22;16488;52.396;10.696;2023-06-22T14:49:20;26.60;99.90
29551;DHT22;16488;52.396;10.696;2023-06-22T14:51:46;26.60;99.90
29551;DHT22;16488;52.396;10.696;2023-06-22T14:54:11;26.60;99.90
29551;DHT22;16488;52.396;10.696;2023-06-22T14:56:37;26.70;99.90
29551;DHT22;16488;52.396;10.696;2023-06-22T14:59:03;26.80;99.90
29551;DHT22;16488;52.396;10.696;2023-06-22T15:01:28;26.70;99.90
29551;DHT22;16488;52.396;10.696;2023-06-22T15:03:54;26.70;99.90
29551;DHT22;16488;52.396;10.696;2023-06-22T15:06:21;26.80;99.90
29551;DHT22;16488;52.396;10.696;2023-06-22T15:08:47;26.80;99.90
29551;DHT22;16488;52.396;10.696;2023-06-22T15:11:12;26.70;99.90
29551;DHT22;16488;52.396;10.696;2023-06-22T15:13:41;26.70;99.90
29551;DHT22;16488;52.396;10.696;2023-06-22T15:16:07;26.60;99.90
29551;DHT22;16488;52.396;10.696;2023-06-22T15:18:35;26.60;99.90